Time;durP1;ratioP1;P1;durP2;ratioP2;P2;SDS_P1;SDS_P2;PMS_P1;PMS_P2;Temp;Humidity;BMP_temperature;BMP_pressure;BME280_temperature;BME280_humidity;BME280_pressure;Samples;Min_cycle;Max_cycle;Signal;HPM_P1;HPM_P2
2021/12/08 00:01:17;;;;;;;8.60;3.80;;;3.50;99.90;;;;;;5092280;28;20758;-55
2021/12/08 00:03:43;;;;;;;9.30;3.72;;;3.40;99.90;;;;;;5091602;28;20393;-56
2021/12/08 00:06:09;;;;;;;8.40;3.90;;;3.50;99.90;;;;;;5092724;28;20401;-56
2021/12/08 00:08:36;;;;;;;8.43;4.00;;;3.40;99.90;;;;;;5091785;28;20389;-55
2021/12/08 00:13:02;;;;;;;8.93;3.50;;;3.40;99.90;;;;;;5091984;28;20926;-56
2021/12/08 00:13:49;;;;;;;9.82;4.00;;;3.40;99.90;;;;;;5091453;28;20412;-55
2021/12/08 00:16:15;;;;;;;7.13;3.00;;;3.40;99.90;;;;;;5092369;28;20405;-55
2021/12/08 00:18:46;;;;;;;11.40;3.93;;;3.50;99.90;;;;;;5091181;28;20394;-55
2021/12/08 00:21:14;;;;;;;9.80;3.47;;;3.50;99.90;;;;;;5091902;28;20408;-55
2021/12/08 00:23:39;;;;;;;8.45;3.78;;;3.50;99.90;;;;;;5091397;28;20378;-56
2021/12/08 00:26:06;;;;;;;8.88;3.78;;;4.00;99.90;;;;;;5090775;28;20394;-55
2021/12/08 00:28:32;;;;;;;8.80;3.60;;;3.50;99.90;;;;;;5091279;28;20424;-55
2021/12/08 00:31:00;;;;;;;6.68;3.10;;;3.60;99.90;;;;;;5092133;28;20366;-55
2021/12/08 00:33:28;;;;;;;8.18;3.20;;;3.50;99.90;;;;;;5090004;28;20386;-57
2021/12/08 00:35:54;;;;;;;9.55;3.55;;;3.50;99.90;;;;;;5091686;28;20398;-55
2021/12/08 00:38:21;;;;;;;8.60;3.70;;;3.40;99.90;;;;;;5091834;28;20393;-55
2021/12/08 00:40:49;;;;;;;6.72;3.13;;;3.50;99.90;;;;;;5091194;28;20386;-55
2021/12/08 00:43:16;;;;;;;9.10;3.67;;;3.40;99.90;;;;;;5091319;28;20386;-55
2021/12/08 00:45:41;;;;;;;9.40;4.10;;;3.70;99.90;;;;;;5098502;28;20381;-56
2021/12/08 00:48:08;;;;;;;7.93;3.67;;;3.40;99.90;;;;;;5111913;28;20475;-56
2021/12/08 00:50:36;;;;;;;11.25;4.20;;;4.40;99.90;;;;;;5110731;28;20380;-56
2021/12/08 00:53:03;;;;;;;8.10;3.65;;;3.50;99.90;;;;;;5111817;28;20380;-56
2021/12/08 00:55:29;;;;;;;11.05;4.40;;;3.50;99.90;;;;;;5109669;28;20392;-56
2021/12/08 00:57:55;;;;;;;8.90;4.27;;;3.50;99.90;;;;;;5112074;28;20377;-56
2021/12/08 01:00:26;;;;;;;9.57;4.10;;;3.40;99.90;;;;;;5111543;28;20459;-56
2021/12/08 01:02:52;;;;;;;8.68;3.80;;;3.50;99.90;;;;;;5112233;28;20377;-55
2021/12/08 01:05:24;;;;;;;8.07;3.70;;;3.40;99.90;;;;;;5111626;28;20376;-55
2021/12/08 01:07:50;;;;;;;9.35;3.60;;;3.30;99.90;;;;;;5111150;28;20369;-55
2021/12/08 01:10:22;;;;;;;8.18;3.95;;;3.40;99.90;;;;;;5111364;28;20802;-55
2021/12/08 01:12:49;;;;;;;9.20;3.60;;;3.30;99.90;;;;;;5110620;28;20384;-55
2021/12/08 01:15:15;;;;;;;8.60;4.10;;;3.30;99.90;;;;;;5111265;28;20431;-55
2021/12/08 01:17:41;;;;;;;9.45;3.70;;;3.40;99.90;;;;;;5110684;28;20392;-55
2021/12/08 01:20:09;;;;;;;8.60;3.70;;;3.50;99.90;;;;;;5111240;28;20425;-56
2021/12/08 01:22:35;;;;;;;7.55;3.83;;;3.60;99.90;;;;;;5110519;28;20372;-55
2021/12/08 01:25:01;;;;;;;7.23;3.47;;;3.60;99.90;;;;;;5111349;28;20929;-56
2021/12/08 01:27:26;;;;;;;7.90;4.10;;;3.70;99.90;;;;;;5110330;28;20387;-60
2021/12/08 01:29:52;;;;;;;14.60;4.38;;;3.70;99.90;;;;;;5111488;28;20368;-56
2021/12/08 01:32:19;;;;;;;8.20;3.70;;;4.60;99.90;;;;;;5111375;28;20910;-55
2021/12/08 01:34:45;;;;;;;8.35;3.80;;;3.60;99.90;;;;;;5110059;28;20951;-55
2021/12/08 01:37:11;;;;;;;7.75;3.42;;;3.60;99.90;;;;;;5110520;28;20404;-56
2021/12/08 01:39:42;;;;;;;8.50;2.83;;;4.50;99.90;;;;;;5110420;28;20375;-56
2021/12/08 01:42:15;;;;;;;9.02;3.00;;;3.40;99.90;;;;;;5103726;28;20403;-56
2021/12/08 01:47:27;;;;;;;8.00;2.70;;;4.90;99.90;;;;;;5096589;28;20882;-59
2021/12/08 01:49:53;;;;;;;10.60;3.00;;;3.30;99.90;;;;;;5090466;28;20386;-55
2021/12/08 01:52:19;;;;;;;7.60;3.28;;;3.30;99.90;;;;;;5090228;28;20477;-55
2021/12/08 01:54:45;;;;;;;6.70;2.43;;;4.10;99.90;;;;;;5089669;28;20402;-56
2021/12/08 01:57:10;;;;;;;8.15;2.50;;;3.20;99.90;;;;;;5090126;28;20413;-55
2021/12/08 01:59:36;;;;;;;5.82;2.40;;;3.50;99.90;;;;;;5088483;28;20444;-56
2021/12/08 02:02:02;;;;;;;7.73;2.60;;;3.20;99.90;;;;;;5090341;28;20370;-56
2021/12/08 02:04:27;;;;;;;5.97;2.30;;;3.10;99.90;;;;;;5088144;28;20867;-60
2021/12/08 02:06:53;;;;;;;6.40;2.40;;;3.20;99.90;;;;;;5090338;28;20393;-55
2021/12/08 02:09:19;;;;;;;9.50;3.90;;;4.40;99.90;;;;;;5090010;28;20465;-57
2021/12/08 02:11:46;;;;;;;5.33;2.30;;;3.20;99.90;;;;;;5089338;28;20827;-56
2021/12/08 02:14:13;;;;;;;9.70;2.78;;;3.20;99.90;;;;;;5089655;28;20398;-55
2021/12/08 02:16:39;;;;;;;6.03;2.40;;;3.40;99.90;;;;;;5089114;28;20406;-57
2021/12/08 02:19:06;;;;;;;10.88;4.45;;;3.50;99.90;;;;;;5089942;28;20389;-56
2021/12/08 02:21:37;;;;;;;5.35;2.10;;;3.60;99.90;;;;;;5089205;28;20394;-57
2021/12/08 02:24:08;;;;;;;6.85;2.70;;;3.50;99.90;;;;;;5089794;28;20426;-56
2021/12/08 02:26:35;;;;;;;6.50;2.33;;;3.60;99.90;;;;;;5087997;28;20943;-56
2021/12/08 02:29:07;;;;;;;5.65;2.30;;;3.60;99.90;;;;;;5088592;28;20515;-56
2021/12/08 02:48:05;;;;;;;7.32;2.42;;;3.40;99.90;;;;;;5089694;28;20462;-56
2021/12/08 02:50:36;;;;;;;7.97;2.60;;;3.30;99.90;;;;;;5088997;28;20394;-56
2021/12/08 02:53:04;;;;;;;8.95;2.72;;;3.30;99.90;;;;;;5089726;28;20428;-56
2021/12/08 02:55:32;;;;;;;7.03;2.30;;;3.30;99.90;;;;;;5089742;28;20867;-56
2021/12/08 02:58:01;;;;;;;6.43;2.53;;;3.30;99.90;;;;;;5093840;28;20436;-56
2021/12/08 03:00:29;;;;;;;8.07;2.60;;;3.30;99.90;;;;;;5093490;28;20386;-60
2021/12/08 03:02:58;;;;;;;7.57;2.50;;;3.10;99.90;;;;;;5093791;28;20404;-57
2021/12/08 03:05:25;;;;;;;7.05;2.95;;;3.20;99.90;;;;;;5093649;28;20855;-56
2021/12/08 03:07:51;;;;;;;7.82;3.25;;;4.60;99.90;;;;;;5092943;28;20381;-55
2021/12/08 03:10:21;;;;;;;7.60;3.40;;;2.90;99.90;;;;;;5093869;28;20459;-56
2021/12/08 03:12:47;;;;;;;9.48;3.90;;;2.70;99.90;;;;;;5092481;28;20429;-55
2021/12/08 03:15:14;;;;;;;9.23;3.80;;;3.30;99.90;;;;;;5092898;28;20425;-55
2021/12/08 03:17:41;;;;;;;11.00;4.60;;;2.70;99.90;;;;;;5091022;28;20402;-55
2021/12/08 03:20:10;;;;;;;10.00;4.00;;;2.70;99.90;;;;;;5093029;28;20382;-55
2021/12/08 03:22:38;;;;;;;8.40;4.28;;;2.70;99.90;;;;;;5092362;28;20374;-56
2021/12/08 03:25:07;;;;;;;10.80;4.50;;;2.80;99.90;;;;;;5093067;28;20374;-55
2021/12/08 03:27:37;;;;;;;10.17;5.07;;;2.80;99.90;;;;;;5092355;28;21227;-56
2021/12/08 03:30:16;;;;;;;8.20;4.15;;;3.00;99.90;;;;;;5092742;28;20731;-56
2021/12/08 03:32:42;;;;;;;9.45;4.47;;;2.80;99.90;;;;;;5098754;28;20372;-56
2021/12/08 03:35:15;;;;;;;10.23;4.20;;;4.40;99.90;;;;;;5098303;28;20374;-56
2021/12/08 03:37:44;;;;;;;9.23;4.07;;;3.10;99.90;;;;;;5091848;28;20402;-57
2021/12/08 03:40:15;;;;;;;10.43;4.40;;;2.90;99.90;;;;;;5094581;28;20390;-56
2021/12/08 03:42:42;;;;;;;9.02;4.60;;;2.90;99.90;;;;;;5101236;28;20385;-57
2021/12/08 03:45:16;;;;;;;12.00;4.70;;;3.30;99.90;;;;;;5092756;28;20366;-56
2021/12/08 03:47:44;;;;;;;9.77;4.30;;;2.90;99.90;;;;;;5092050;28;20454;-56
2021/12/08 03:50:13;;;;;;;9.55;4.50;;;2.90;99.90;;;;;;5091317;28;20386;-56
2021/12/08 03:52:40;;;;;;;10.55;4.80;;;3.20;99.90;;;;;;5091774;28;20382;-56
2021/12/08 03:55:09;;;;;;;10.97;4.60;;;3.00;99.90;;;;;;5092598;28;20401;-56
2021/12/08 03:57:35;;;;;;;12.00;4.88;;;3.00;99.90;;;;;;5091917;28;20484;-56
2021/12/08 04:00:00;;;;;;;9.75;4.80;;;3.00;99.90;;;;;;5092909;28;20926;-55
2021/12/08 04:02:27;;;;;;;10.82;4.55;;;3.00;99.90;;;;;;5092287;28;20492;-60
2021/12/08 04:04:52;;;;;;;10.10;5.00;;;3.00;99.90;;;;;;5091894;28;20397;-56
2021/12/08 04:07:19;;;;;;;8.50;4.60;;;3.10;99.90;;;;;;5092032;28;20863;-55
2021/12/08 04:09:48;;;;;;;10.55;4.97;;;3.10;99.90;;;;;;5090058;28;20386;-56
2021/12/08 04:12:17;;;;;;;10.10;4.78;;;3.10;99.90;;;;;;5092314;28;20481;-57
2021/12/08 04:14:56;;;;;;;11.43;5.32;;;3.20;99.90;;;;;;5091256;28;20416;-56
2021/12/08 04:17:30;;;;;;;9.70;4.80;;;3.20;99.90;;;;;;5092069;28;20398;-56
2021/12/08 04:19:57;;;;;;;11.80;4.68;;;4.50;99.90;;;;;;5091836;28;20802;-56
2021/12/08 04:22:38;;;;;;;9.77;5.28;;;4.40;99.90;;;;;;5092050;28;20374;-56
2021/12/08 04:25:09;;;;;;;10.90;5.15;;;3.20;99.90;;;;;;5090531;28;20390;-56
2021/12/08 04:27:38;;;;;;;8.70;5.10;;;3.30;99.90;;;;;;5090848;28;20477;-56
2021/12/08 04:30:09;;;;;;;10.98;5.30;;;3.30;99.90;;;;;;5099865;28;20459;-56
2021/12/08 04:32:35;;;;;;;12.20;5.90;;;3.30;99.90;;;;;;5108678;28;20877;-56
2021/12/08 04:35:04;;;;;;;11.15;5.70;;;3.50;99.90;;;;;;5112060;28;20377;-56
2021/12/08 04:37:35;;;;;;;11.15;5.53;;;3.50;99.90;;;;;;5110665;28;20400;-60
2021/12/08 04:40:20;;;;;;;14.05;5.85;;;3.50;99.90;;;;;;5111811;28;20380;-56
2021/12/08 04:45:33;;;;;;;11.30;5.63;;;3.50;99.90;;;;;;5110389;28;20756;-56
2021/12/08 04:48:18;;;;;;;10.43;5.70;;;5.00;99.90;;;;;;5109802;28;20861;-56
2021/12/08 05:04:49;;;;;;;12.75;6.03;;;3.60;99.90;;;;;;5107499;28;20913;-56
2021/12/08 05:09:55;;;;;;;10.00;5.20;;;3.80;99.90;;;;;;5110884;28;20373;-56
2021/12/08 05:12:24;;;;;;;10.05;5.03;;;4.40;99.90;;;;;;5110824;28;20376;-56
2021/12/08 05:15:05;;;;;;;13.48;5.95;;;3.70;99.90;;;;;;5109678;28;20411;-57
2021/12/08 05:17:41;;;;;;;11.45;6.30;;;3.80;99.90;;;;;;5110376;28;20400;-60
2021/12/08 05:20:26;;;;;;;18.58;6.22;;;3.80;99.90;;;;;;5110497;28;20380;-56
2021/12/08 05:22:56;;;;;;;14.50;6.10;;;3.90;99.90;;;;;;5103795;28;20396;-56
2021/12/08 05:25:25;;;;;;;12.35;5.97;;;3.90;99.90;;;;;;5109488;28;20439;-56
2021/12/08 05:27:53;;;;;;;10.40;6.23;;;4.70;99.90;;;;;;5108038;28;20379;-56
2021/12/08 05:30:22;;;;;;;11.02;5.85;;;4.00;99.90;;;;;;5109627;28;20766;-56
2021/12/08 05:32:49;;;;;;;13.20;6.40;;;4.00;99.90;;;;;;5110235;28;20388;-57
2021/12/08 05:35:17;;;;;;;14.50;6.50;;;4.00;99.90;;;;;;5110544;28;20384;-56
2021/12/08 05:37:43;;;;;;;17.10;6.07;;;4.10;99.90;;;;;;5104196;28;20418;-56
2021/12/08 05:40:15;;;;;;;17.52;6.60;;;4.10;99.90;;;;;;5108244;28;20380;-56
2021/12/08 05:42:41;;;;;;;13.13;7.00;;;4.40;99.90;;;;;;5104772;28;20404;-57
2021/12/08 05:45:13;;;;;;;13.63;6.60;;;4.10;99.90;;;;;;5110233;28;20383;-56
2021/12/08 05:47:40;;;;;;;14.88;6.60;;;4.20;99.90;;;;;;5105651;28;20376;-56
2021/12/08 05:50:09;;;;;;;11.60;6.00;;;4.30;99.90;;;;;;5110455;28;20383;-56
2021/12/08 05:52:34;;;;;;;15.50;6.00;;;4.30;99.90;;;;;;5108673;28;20377;-56
2021/12/08 05:55:01;;;;;;;12.75;6.60;;;5.60;99.90;;;;;;5103715;28;20391;-57
2021/12/08 05:57:32;;;;;;;12.80;6.30;;;5.30;99.90;;;;;;5095712;28;20446;-56
2021/12/08 06:00:00;;;;;;;12.48;6.15;;;4.50;99.90;;;;;;5107712;28;20766;-56
2021/12/08 06:02:32;;;;;;;14.95;6.45;;;4.60;99.90;;;;;;5110546;28;20380;-56
2021/12/08 06:05:00;;;;;;;15.90;6.50;;;4.70;99.90;;;;;;5110334;28;20524;-56
2021/12/08 06:07:26;;;;;;;15.80;7.65;;;4.70;99.90;;;;;;5110478;28;20388;-55
2021/12/08 06:09:55;;;;;;;13.93;7.03;;;4.70;99.90;;;;;;5109874;27;20841;-55
2021/12/08 06:12:22;;;;;;;14.13;7.38;;;4.60;99.90;;;;;;5110538;28;20468;-56
2021/12/08 06:14:54;;;;;;;16.70;7.03;;;4.60;99.90;;;;;;5109657;28;20392;-56
2021/12/08 06:17:26;;;;;;;15.00;7.57;;;4.40;99.90;;;;;;5109481;28;20406;-56
2021/12/08 06:19:53;;;;;;;13.27;6.50;;;4.50;99.90;;;;;;5109333;28;21074;-58
2021/12/08 06:22:20;;;;;;;15.53;6.50;;;4.50;99.90;;;;;;5108536;28;20435;-56
2021/12/08 06:24:47;;;;;;;11.65;6.65;;;4.50;99.90;;;;;;5097634;28;20870;-56
2021/12/08 06:27:13;;;;;;;15.60;7.55;;;4.50;99.90;;;;;;5089983;28;20748;-56
2021/12/08 06:29:41;;;;;;;18.95;7.45;;;4.40;99.90;;;;;;5095071;28;20395;-56
2021/12/08 06:32:09;;;;;;;14.80;7.27;;;4.40;99.90;;;;;;5107837;28;20460;-56
2021/12/08 06:34:37;;;;;;;16.42;8.00;;;4.80;99.90;;;;;;5104042;28;20742;-57
2021/12/08 06:37:27;;;;;;;14.65;7.10;;;4.30;99.90;;;;;;5109416;28;20417;-56
2021/12/08 06:40:00;;;;;;;12.18;7.40;;;4.20;99.90;;;;;;5106696;28;20497;-55
2021/12/08 06:42:30;;;;;;;15.30;7.75;;;4.20;99.90;;;;;;5109679;28;20401;-57
2021/12/08 06:44:56;;;;;;;12.43;7.40;;;4.10;99.90;;;;;;5107956;28;20388;-55
2021/12/08 06:47:26;;;;;;;15.57;7.90;;;4.10;99.90;;;;;;5109637;28;20383;-54
2021/12/08 06:49:54;;;;;;;15.00;7.90;;;4.10;99.90;;;;;;5106345;28;20387;-56
2021/12/08 06:52:24;;;;;;;15.23;8.20;;;4.20;99.90;;;;;;5109408;28;20392;-55
2021/12/08 06:55:01;;;;;;;16.05;8.52;;;4.20;99.90;;;;;;5105841;28;20380;-56
2021/12/08 06:57:34;;;;;;;13.30;8.90;;;4.20;99.90;;;;;;5109231;28;20416;-55
2021/12/08 07:00:15;;;;;;;17.58;8.77;;;4.30;99.90;;;;;;5109622;28;20411;-55
2021/12/08 07:05:26;;;;;;;13.00;7.55;;;4.50;99.90;;;;;;5101127;28;20845;-56
2021/12/08 07:08:08;;;;;;;12.20;6.93;;;4.50;99.90;;;;;;5106456;28;20376;-56
2021/12/08 07:10:44;;;;;;;13.07;6.85;;;4.70;99.90;;;;;;5103944;28;20398;-60
2021/12/08 07:13:17;;;;;;;11.40;7.00;;;4.80;99.90;;;;;;5103314;28;20492;-57
2021/12/08 07:15:51;;;;;;;15.32;7.50;;;4.80;99.90;;;;;;5103709;28;20476;-55
2021/12/08 07:18:24;;;;;;;15.38;6.90;;;4.80;99.90;;;;;;5089052;28;20413;-55
2021/12/08 07:20:57;;;;;;;15.80;7.13;;;4.80;99.90;;;;;;5100370;28;20504;-56
2021/12/08 07:23:45;;;;;;;11.38;6.10;;;4.80;99.90;;;;;;5108186;28;20896;-55
2021/12/08 07:26:18;;;;;;;15.82;6.22;;;4.80;99.90;;;;;;5095140;28;20849;-55
2021/12/08 07:28:45;;;;;;;15.10;6.40;;;4.80;99.90;;;;;;5108853;28;20471;-55
2021/12/08 07:31:22;;;;;;;13.75;6.65;;;4.90;99.90;;;;;;5109232;28;20376;-55
2021/12/08 07:33:48;;;;;;;11.65;5.93;;;4.90;99.90;;;;;;5107958;28;20791;-55
2021/12/08 07:36:17;;;;;;;10.85;5.30;;;5.10;99.90;;;;;;5108995;28;20408;-55
2021/12/08 07:38:49;;;;;;;11.77;5.50;;;5.10;99.90;;;;;;5108319;28;20393;-55
2021/12/08 07:41:20;;;;;;;10.82;5.32;;;5.20;99.90;;;;;;5109511;28;20392;-53
2021/12/08 07:43:52;;;;;;;12.05;5.10;;;5.30;99.90;;;;;;5109472;28;20487;-53
2021/12/08 07:46:38;;;;;;;11.37;5.50;;;5.20;99.90;;;;;;5103624;28;20437;-53
2021/12/08 07:49:12;;;;;;;9.63;4.95;;;5.20;99.90;;;;;;5102445;28;21065;-56
2021/12/08 07:52:03;;;;;;;9.85;4.93;;;5.30;99.90;;;;;;5111560;28;20395;-54
2021/12/08 07:54:31;;;;;;;10.30;5.40;;;5.50;99.90;;;;;;5104687;28;20404;-54
2021/12/08 07:57:00;;;;;;;12.13;5.57;;;5.40;99.90;;;;;;5101753;28;20754;-53
2021/12/08 07:59:28;;;;;;;12.57;5.10;;;5.40;99.90;;;;;;5111025;28;20799;-54
2021/12/08 08:02:00;;;;;;;10.80;5.45;;;5.50;99.90;;;;;;5111411;28;20379;-55
2021/12/08 08:04:27;;;;;;;13.18;6.43;;;5.40;99.90;;;;;;5113092;28;20379;-55
2021/12/08 08:06:56;;;;;;;11.30;5.60;;;5.30;99.90;;;;;;5105398;27;20407;-54
2021/12/08 08:09:35;;;;;;;11.50;6.50;;;5.30;99.90;;;;;;5104640;28;20485;-54
2021/12/08 08:12:05;;;;;;;11.55;6.18;;;5.30;99.90;;;;;;5093150;28;20934;-54
2021/12/08 08:14:38;;;;;;;12.93;6.20;;;5.20;99.90;;;;;;5107344;28;20818;-54
2021/12/08 08:17:07;;;;;;;11.77;5.60;;;5.30;99.90;;;;;;5095129;28;20408;-54
2021/12/08 08:19:39;;;;;;;11.20;5.80;;;5.30;99.90;;;;;;5095782;28;20484;-58
2021/12/08 08:22:09;;;;;;;10.50;5.90;;;5.30;99.90;;;;;;5110066;28;20381;-54
2021/12/08 08:24:36;;;;;;;9.43;5.15;;;5.40;99.90;;;;;;5099639;28;20370;-59
2021/12/08 08:27:05;;;;;;;10.43;5.03;;;5.50;99.90;;;;;;5100160;28;20400;-55
2021/12/08 08:29:30;;;;;;;12.38;5.50;;;5.60;99.90;;;;;;5100838;28;20385;-54
2021/12/08 08:32:08;;;;;;;9.73;5.50;;;5.60;99.90;;;;;;5090987;28;20875;-55
2021/12/08 08:34:39;;;;;;;12.77;6.15;;;5.70;99.90;;;;;;5100019;28;20471;-59
2021/12/08 08:37:09;;;;;;;11.05;5.40;;;7.10;99.90;;;;;;5103099;28;20494;-55
2021/12/08 08:39:38;;;;;;;10.60;6.10;;;5.90;99.90;;;;;;5108783;28;20384;-58
2021/12/08 08:42:13;;;;;;;13.60;5.60;;;6.00;99.90;;;;;;5106641;28;20446;-54
2021/12/08 08:44:44;;;;;;;10.32;5.32;;;5.90;99.90;;;;;;5106889;28;20407;-54
2021/12/08 08:47:24;;;;;;;14.60;8.10;;;6.00;99.90;;;;;;5108450;27;20411;-54
2021/12/08 08:49:51;;;;;;;16.58;7.47;;;6.00;99.90;;;;;;5107060;27;20424;-54
2021/12/08 08:52:33;;;;;;;12.40;7.70;;;6.10;99.90;;;;;;5120175;27;20846;-54
2021/12/08 08:55:05;;;;;;;14.85;7.20;;;5.90;99.90;;;;;;5127409;27;20390;-55
2021/12/08 08:57:37;;;;;;;12.60;7.53;;;5.80;99.90;;;;;;5116638;27;20398;-54
2021/12/08 09:00:08;;;;;;;16.67;7.30;;;5.60;99.90;;;;;;5122014;27;20388;-54
2021/12/08 09:02:38;;;;;;;14.57;7.80;;;5.60;99.90;;;;;;5109476;27;20388;-58
2021/12/08 09:05:10;;;;;;;15.48;7.60;;;5.70;99.90;;;;;;5127800;27;20378;-54
2021/12/08 09:07:40;;;;;;;12.07;6.93;;;5.60;99.90;;;;;;5116290;27;20390;-58
2021/12/08 09:10:29;;;;;;;15.65;8.20;;;5.60;99.90;;;;;;5120884;27;20396;-54
2021/12/08 09:13:02;;;;;;;16.43;8.17;;;5.60;99.90;;;;;;5100128;27;20481;-55
2021/12/08 09:15:33;;;;;;;14.43;7.20;;;5.70;99.90;;;;;;5108459;27;20396;-54
2021/12/08 09:18:18;;;;;;;12.15;7.05;;;5.70;99.90;;;;;;5108925;27;20486;-54
2021/12/08 09:20:44;;;;;;;12.40;7.15;;;5.90;99.90;;;;;;5106700;27;20413;-54
2021/12/08 09:23:21;;;;;;;12.13;6.30;;;5.90;99.90;;;;;;5119672;27;20398;-55
2021/12/08 09:25:56;;;;;;;10.20;5.40;;;6.00;99.90;;;;;;5130489;27;20408;-56
2021/12/08 09:28:29;;;;;;;12.35;6.50;;;6.50;99.90;;;;;;5130815;27;20378;-54
2021/12/08 09:31:19;;;;;;;10.68;5.35;;;6.00;99.90;;;;;;5129474;27;20371;-54
2021/12/08 09:33:56;;;;;;;9.35;5.10;;;6.10;99.90;;;;;;5130526;27;20375;-55
2021/12/08 09:36:32;;;;;;;8.98;4.72;;;6.00;99.90;;;;;;5130777;27;20401;-54
2021/12/08 09:39:05;;;;;;;8.07;4.50;;;6.00;99.90;;;;;;5130376;27;20461;-54
2021/12/08 09:41:41;;;;;;;10.63;4.68;;;6.10;99.90;;;;;;5131144;27;20420;-54
2021/12/08 09:44:17;;;;;;;9.30;4.50;;;6.20;99.90;;;;;;5131558;27;20398;-54
2021/12/08 09:46:45;;;;;;;7.75;3.80;;;6.10;99.90;;;;;;5130340;27;20383;-54
2021/12/08 09:49:14;;;;;;;7.70;3.70;;;6.10;99.90;;;;;;5130823;27;20852;-54
2021/12/08 09:51:42;;;;;;;7.28;3.42;;;6.20;99.90;;;;;;5128573;27;20423;-54
2021/12/08 09:54:07;;;;;;;6.25;2.90;;;6.20;99.90;;;;;;5130953;27;20423;-54
2021/12/08 09:56:34;;;;;;;7.00;3.40;;;6.30;99.90;;;;;;5129083;27;20907;-54
2021/12/08 09:59:03;;;;;;;8.75;3.80;;;6.30;99.90;;;;;;5130173;27;20371;-55
2021/12/08 10:01:29;;;;;;;7.97;4.00;;;6.40;99.90;;;;;;5130709;27;20367;-54
2021/12/08 10:03:55;;;;;;;9.45;3.83;;;6.50;99.90;;;;;;5129950;27;21225;-54
2021/12/08 10:06:24;;;;;;;7.65;4.20;;;6.40;99.90;;;;;;5130630;27;20484;-54
2021/12/08 10:08:57;;;;;;;7.05;3.85;;;6.50;99.90;;;;;;5128684;27;20913;-54
2021/12/08 10:11:24;;;;;;;12.32;7.22;;;6.40;99.90;;;;;;5130643;27;20399;-55
2021/12/08 10:13:50;;;;;;;10.00;4.70;;;6.30;99.90;;;;;;5117711;27;20443;-56
2021/12/08 10:16:16;;;;;;;8.50;4.60;;;6.50;99.90;;;;;;5109995;28;20534;-54
2021/12/08 10:18:43;;;;;;;7.93;4.10;;;6.50;99.90;;;;;;5108700;28;20384;-54
2021/12/08 10:21:09;;;;;;;8.30;4.22;;;6.50;99.90;;;;;;5110057;28;20838;-54
2021/12/08 10:23:37;;;;;;;6.88;3.63;;;6.40;99.90;;;;;;5108171;28;20891;-58
2021/12/08 10:26:15;;;;;;;6.60;3.53;;;6.50;99.90;;;;;;5109797;28;20731;-55
2021/12/08 10:28:47;;;;;;;8.40;4.40;;;6.70;99.90;;;;;;5108700;28;20715;-53
2021/12/08 10:31:27;;;;;;;8.60;3.50;;;6.90;99.90;;;;;;5109904;28;20387;-53
2021/12/08 10:34:05;;;;;;;6.78;3.20;;;6.80;99.90;;;;;;5108444;28;20462;-54
2021/12/08 10:36:46;;;;;;;7.55;3.92;;;7.00;99.90;;;;;;5109444;28;20407;-54
2021/12/08 10:39:24;;;;;;;12.40;8.27;;;7.00;99.90;;;;;;5109189;28;20410;-55
2021/12/08 10:42:14;;;;;;;15.70;12.65;;;6.90;99.90;;;;;;5109195;28;20384;-55
2021/12/08 10:45:02;;;;;;;8.65;4.40;;;6.90;99.90;;;;;;5109089;28;20530;-55
2021/12/08 10:47:32;;;;;;;12.95;6.90;;;6.80;99.90;;;;;;5109738;28;20387;-55
2021/12/08 10:55:20;;;;;;;12.70;5.40;;;7.20;99.90;;;;;;5109654;28;20917;-54
2021/12/08 10:57:53;;;;;;;9.50;4.35;;;7.30;99.90;;;;;;5107368;28;20396;-54
2021/12/08 11:00:30;;;;;;;10.93;4.35;;;7.50;99.90;;;;;;5109434;28;20380;-54
2021/12/08 11:03:00;;;;;;;9.10;4.40;;;7.50;99.90;;;;;;5107501;28;20967;-54
2021/12/08 11:05:25;;;;;;;8.83;4.10;;;7.60;99.90;;;;;;5109738;28;20388;-54
2021/12/08 11:08:15;;;;;;;9.30;4.10;;;7.70;99.90;;;;;;5108382;28;20391;-54
2021/12/08 11:10:50;;;;;;;8.10;4.15;;;7.70;99.90;;;;;;5108471;28;20465;-54
2021/12/08 11:13:20;;;;;;;8.80;5.05;;;7.70;99.90;;;;;;5108588;28;20495;-54
2021/12/08 11:15:46;;;;;;;9.05;5.47;;;7.60;99.90;;;;;;5108708;28;20380;-55
2021/12/08 11:18:14;;;;;;;7.40;4.20;;;7.50;99.90;;;;;;5111473;28;20416;-54
2021/12/08 11:20:49;;;;;;;8.35;4.75;;;7.40;99.90;;;;;;5112400;28;20381;-55
2021/12/08 11:23:28;;;;;;;9.07;5.72;;;7.40;99.90;;;;;;5113204;28;20384;-54
2021/12/08 11:25:56;;;;;;;7.40;4.68;;;7.30;99.90;;;;;;5112533;28;20418;-54
2021/12/08 11:28:30;;;;;;;9.80;4.07;;;7.20;99.90;;;;;;5112100;28;20737;-54
2021/12/08 11:31:07;;;;;;;6.47;3.30;;;7.10;99.90;;;;;;5112132;28;20376;-54
2021/12/08 11:33:36;;;;;;;6.93;3.00;;;7.00;99.90;;;;;;5113075;28;20376;-54
2021/12/08 11:36:09;;;;;;;5.82;3.03;;;7.10;99.90;;;;;;5113142;28;20409;-54
2021/12/08 11:38:35;;;;;;;6.38;2.97;;;7.20;99.90;;;;;;5112958;28;20391;-55
2021/12/08 11:41:07;;;;;;;7.38;3.53;;;7.30;99.90;;;;;;5112435;28;20369;-54
2021/12/08 11:43:33;;;;;;;6.20;2.80;;;7.40;99.90;;;;;;5113482;28;20572;-54
2021/12/08 11:46:16;;;;;;;11.57;3.67;;;7.50;99.90;;;;;;5112013;28;20463;-55
2021/12/08 11:49:04;;;;;;;7.47;3.33;;;7.70;99.90;;;;;;5112192;28;20403;-56
2021/12/08 11:51:52;;;;;;;8.10;3.80;;;7.70;99.90;;;;;;5112746;28;20396;-54
2021/12/08 11:54:34;;;;;;;6.50;3.40;;;7.70;99.90;;;;;;5113031;28;20372;-54
2021/12/08 11:57:10;;;;;;;7.10;3.40;;;7.50;99.90;;;;;;5111756;28;21311;-54
2021/12/08 11:59:54;;;;;;;10.55;5.90;;;7.60;99.90;;;;;;5112569;28;20451;-55
2021/12/08 12:02:23;;;;;;;8.68;4.60;;;7.50;99.90;;;;;;5112977;28;20917;-55
2021/12/08 12:04:49;;;;;;;8.63;5.20;;;7.50;99.90;;;;;;5111780;28;20394;-54
2021/12/08 12:07:15;;;;;;;9.32;5.13;;;7.60;99.90;;;;;;5112737;28;20512;-54
2021/12/08 12:09:44;;;;;;;10.10;5.70;;;7.50;99.90;;;;;;5112023;28;20379;-55
2021/12/08 12:12:10;;;;;;;9.40;5.50;;;6.70;99.90;;;;;;5112383;28;20382;-54
2021/12/08 12:14:36;;;;;;;10.82;6.45;;;7.40;99.90;;;;;;5112365;28;20407;-54
2021/12/08 12:17:03;;;;;;;10.40;6.00;;;7.30;99.90;;;;;;5111714;28;20444;-54
2021/12/08 12:19:35;;;;;;;10.53;5.67;;;7.10;99.90;;;;;;5112456;28;20467;-54
2021/12/08 12:22:27;;;;;;;9.70;5.20;;;7.10;99.90;;;;;;5111478;28;20364;-55
2021/12/08 12:25:11;;;;;;;14.60;7.28;;;7.10;99.90;;;;;;5111476;28;20372;-54
2021/12/08 12:27:40;;;;;;;13.43;10.20;;;7.10;99.90;;;;;;5111264;28;20391;-58
2021/12/08 12:30:41;;;;;;;10.33;6.17;;;7.00;99.90;;;;;;5111360;28;20926;-55
2021/12/08 12:33:18;;;;;;;15.40;8.05;;;7.00;99.90;;;;;;5109897;28;20380;-55
2021/12/08 12:35:49;;;;;;;13.90;9.50;;;7.00;99.90;;;;;;5110976;28;20391;-55
2021/12/08 12:38:15;;;;;;;13.07;6.93;;;6.90;99.90;;;;;;5111590;28;20515;-54
2021/12/08 12:40:48;;;;;;;11.00;6.60;;;7.00;99.90;;;;;;5111361;28;20777;-54
2021/12/08 12:43:28;;;;;;;10.82;6.20;;;7.00;99.90;;;;;;5110338;28;20734;-55
2021/12/08 12:46:05;;;;;;;12.40;7.72;;;7.00;99.90;;;;;;5111052;28;20380;-54
2021/12/08 12:48:31;;;;;;;15.18;9.80;;;7.00;99.90;;;;;;5111715;28;20392;-55
2021/12/08 12:51:07;;;;;;;11.75;6.22;;;7.00;99.90;;;;;;5110763;28;20614;-54
2021/12/08 12:53:59;;;;;;;12.48;6.32;;;7.00;99.90;;;;;;5111680;28;20849;-54
2021/12/08 12:56:27;;;;;;;13.47;6.80;;;7.00;99.90;;;;;;5109394;28;20430;-54
2021/12/08 12:58:55;;;;;;;10.43;6.03;;;7.10;99.90;;;;;;5111029;28;20383;-54
2021/12/08 13:01:35;;;;;;;12.70;6.85;;;7.10;99.90;;;;;;5111192;28;20718;-54
2021/12/08 13:04:12;;;;;;;10.63;5.93;;;7.20;99.90;;;;;;5110781;28;20766;-54
2021/12/08 13:06:57;;;;;;;11.15;6.18;;;7.30;99.90;;;;;;5111414;28;20384;-58
2021/12/08 13:09:42;;;;;;;13.13;6.65;;;7.20;99.90;;;;;;5111316;28;20379;-54
2021/12/08 13:12:19;;;;;;;13.40;6.90;;;7.10;99.90;;;;;;5111125;28;20373;-55
2021/12/08 13:15:08;;;;;;;12.68;7.03;;;7.10;99.90;;;;;;5110553;28;20415;-54
2021/12/08 13:17:35;;;;;;;12.77;7.70;;;7.00;99.90;;;;;;5111056;28;20419;-54
2021/12/08 13:20:05;;;;;;;13.90;7.70;;;7.00;99.90;;;;;;5110053;28;21021;-55
2021/12/08 13:22:55;;;;;;;13.57;7.55;;;6.90;99.90;;;;;;5111004;28;20372;-52
2021/12/08 13:28:50;;;;;;;12.93;8.13;;;7.00;99.90;;;;;;5087341;28;20774;-58
2021/12/08 13:31:25;;;;;;;15.75;9.15;;;6.40;99.90;;;;;;5088002;28;20386;-56
2021/12/08 13:33:50;;;;;;;14.27;8.25;;;7.10;99.90;;;;;;5100687;28;20521;-57
2021/12/08 13:36:22;;;;;;;13.95;8.07;;;7.10;99.90;;;;;;5110981;28;20498;-55
2021/12/08 13:38:57;;;;;;;12.30;7.70;;;7.00;99.90;;;;;;5109938;28;20393;-55
2021/12/08 13:41:26;;;;;;;12.57;7.18;;;7.00;99.90;;;;;;5110601;28;20391;-53
2021/12/08 13:43:52;;;;;;;11.80;6.70;;;7.00;99.90;;;;;;5109537;28;20491;-54
2021/12/08 13:46:36;;;;;;;12.63;7.07;;;7.00;99.90;;;;;;5109407;28;20438;-53
2021/12/08 13:49:16;;;;;;;11.70;6.50;;;7.10;99.90;;;;;;5109596;28;20379;-53
2021/12/08 13:51:58;;;;;;;14.88;7.70;;;7.20;99.90;;;;;;5109659;28;20376;-58
2021/12/08 13:54:30;;;;;;;31.10;13.55;;;7.10;99.90;;;;;;5110728;28;20425;-53
2021/12/08 13:56:57;;;;;;;13.52;7.00;;;7.10;99.90;;;;;;5109491;28;20435;-53
2021/12/08 13:59:47;;;;;;;10.98;6.97;;;6.90;99.90;;;;;;5110312;28;20453;-53
2021/12/08 14:02:20;;;;;;;12.18;7.32;;;6.90;99.90;;;;;;5110045;28;20373;-53